Time;durP1;ratioP1;P1;durP2;ratioP2;P2;SDS_P1;SDS_P2;PMS_P1;PMS_P2;Temp;Humidity;BMP_temperature;BMP_pressure;BME280_temperature;BME280_humidity;BME280_pressure;Samples;Min_cycle;Max_cycle;Signal;HPM_P1;HPM_P2
2021/11/05 00:00:51;;;;;;;5.75;1.55;;;8.50;90.70;;;;;;5018082;28;20544;-73
2021/11/05 00:03:16;;;;;;;3.15;1.20;;;8.50;90.70;;;;;;5008847;28;20030;-75
2021/11/05 00:05:42;;;;;;;4.82;1.27;;;8.40;90.80;;;;;;5025193;28;20034;-73
2021/11/05 00:08:08;;;;;;;4.15;1.50;;;8.40;90.70;;;;;;5009797;28;20041;-73
2021/11/05 00:10:37;;;;;;;3.78;1.30;;;8.40;90.70;;;;;;5005306;28;20045;-73
2021/11/05 00:13:02;;;;;;;8.25;1.40;;;8.30;90.80;;;;;;5013071;28;20231;-73
2021/11/05 00:15:28;;;;;;;3.08;1.10;;;8.30;90.70;;;;;;5009247;28;20069;-73
2021/11/05 00:17:54;;;;;;;3.22;1.25;;;8.30;90.50;;;;;;5009585;28;20034;-74
2021/11/05 00:20:20;;;;;;;6.05;1.30;;;8.30;90.00;;;;;;5022224;28;20120;-78
2021/11/05 00:22:45;;;;;;;5.05;1.45;;;8.30;90.00;;;;;;5007975;28;20026;-73
2021/11/05 00:25:11;;;;;;;4.10;1.30;;;8.30;89.90;;;;;;5010068;28;20561;-72
2021/11/05 00:27:38;;;;;;;4.68;1.10;;;8.30;89.80;;;;;;5022958;28;20041;-73
2021/11/05 00:30:10;;;;;;;4.75;1.40;;;8.30;89.60;;;;;;5014509;28;20508;-73
2021/11/05 00:32:36;;;;;;;4.63;1.02;;;8.30;89.60;;;;;;5008463;28;20129;-76
2021/11/05 00:35:03;;;;;;;6.65;1.30;;;8.20;89.60;;;;;;5025359;28;20076;-72
2021/11/05 00:37:29;;;;;;;5.07;1.48;;;8.30;89.70;;;;;;5006552;28;20042;-72
2021/11/05 00:39:55;;;;;;;3.88;1.20;;;8.30;89.90;;;;;;5005916;28;20037;-73
2021/11/05 00:42:20;;;;;;;6.43;1.73;;;8.30;89.80;;;;;;5007636;28;21995;-73
2021/11/05 00:44:46;;;;;;;3.53;1.15;;;8.20;89.90;;;;;;5013131;28;20426;-75
2021/11/05 00:47:12;;;;;;;4.68;1.50;;;8.20;90.00;;;;;;5010917;28;20366;-73
2021/11/05 00:49:38;;;;;;;5.85;1.42;;;8.20;90.20;;;;;;5014884;28;20053;-77
2021/11/05 00:52:04;;;;;;;7.13;1.50;;;8.20;90.30;;;;;;5012659;28;20068;-73
2021/11/05 00:54:30;;;;;;;4.78;1.83;;;8.20;90.40;;;;;;5010822;28;20033;-73
2021/11/05 00:56:56;;;;;;;6.38;2.10;;;8.20;90.50;;;;;;5008436;28;20445;-73
2021/11/05 00:59:21;;;;;;;5.47;1.50;;;8.20;90.80;;;;;;5015838;28;20082;-72
2021/11/05 01:01:47;;;;;;;7.00;1.73;;;8.30;90.90;;;;;;5009568;28;20038;-72
2021/11/05 01:04:13;;;;;;;6.68;1.38;;;8.30;91.00;;;;;;5020146;28;20157;-73
2021/11/05 01:06:39;;;;;;;7.55;1.52;;;8.30;91.00;;;;;;5008012;28;20125;-78
2021/11/05 01:09:05;;;;;;;6.72;1.67;;;8.30;91.20;;;;;;4998737;28;20064;-73
2021/11/05 01:11:31;;;;;;;10.38;2.08;;;8.30;91.30;;;;;;5005741;28;20045;-75
2021/11/05 01:13:57;;;;;;;4.95;1.20;;;8.30;91.50;;;;;;5002004;28;20029;-73
2021/11/05 01:16:22;;;;;;;6.00;1.30;;;8.30;91.60;;;;;;5011480;28;20041;-74
2021/11/05 01:18:48;;;;;;;5.85;1.30;;;8.30;91.60;;;;;;5011482;28;20081;-75
2021/11/05 01:21:15;;;;;;;6.80;1.33;;;8.30;91.50;;;;;;5017826;28;20386;-73
2021/11/05 01:23:41;;;;;;;5.18;1.10;;;8.30;91.40;;;;;;5034370;28;20535;-74
2021/11/05 01:26:07;;;;;;;5.05;1.30;;;8.30;91.20;;;;;;5015130;28;20038;-73
2021/11/05 01:28:33;;;;;;;6.65;1.10;;;8.40;91.10;;;;;;5006313;28;20481;-73
2021/11/05 01:30:58;;;;;;;6.22;1.13;;;8.40;90.90;;;;;;5010976;28;20057;-74
2021/11/05 01:33:24;;;;;;;4.82;1.67;;;8.40;90.80;;;;;;4998154;28;20488;-77
2021/11/05 01:35:51;;;;;;;5.38;1.73;;;8.40;90.70;;;;;;5009486;28;20029;-72
2021/11/05 01:38:17;;;;;;;5.18;1.48;;;8.50;90.70;;;;;;5000336;28;20042;-74
2021/11/05 01:40:43;;;;;;;8.13;1.42;;;8.50;90.60;;;;;;5007280;28;20045;-72
2021/11/05 01:43:10;;;;;;;5.68;1.30;;;8.50;90.60;;;;;;5006874;28;20065;-75
2021/11/05 01:45:36;;;;;;;5.28;1.50;;;8.50;90.70;;;;;;5008032;28;20076;-73
2021/11/05 01:48:02;;;;;;;8.10;1.60;;;8.50;90.80;;;;;;5007243;28;20041;-74
2021/11/05 01:50:29;;;;;;;8.35;1.33;;;8.50;90.90;;;;;;5012071;28;20045;-74
2021/11/05 01:52:55;;;;;;;8.00;1.75;;;8.50;91.00;;;;;;5007411;28;20037;-73
2021/11/05 01:55:21;;;;;;;8.27;1.75;;;8.50;91.00;;;;;;5007216;28;20030;-76
2021/11/05 01:57:46;;;;;;;6.93;1.70;;;8.50;90.80;;;;;;5029315;28;20033;-73
2021/11/05 02:00:16;;;;;;;8.65;1.30;;;8.50;90.90;;;;;;5008039;28;20042;-73
2021/11/05 02:02:42;;;;;;;7.45;1.45;;;8.50;90.70;;;;;;5008462;28;20099;-80
2021/11/05 02:05:08;;;;;;;6.53;1.73;;;8.60;90.50;;;;;;5024707;28;20120;-74
2021/11/05 02:07:35;;;;;;;3.45;1.25;;;8.50;90.60;;;;;;5006106;28;20546;-71
2021/11/05 02:10:04;;;;;;;3.72;1.30;;;8.50;90.80;;;;;;5008026;28;20042;-73
2021/11/05 02:12:30;;;;;;;7.15;1.70;;;8.50;90.90;;;;;;5012580;28;20033;-73
2021/11/05 02:14:57;;;;;;;5.15;1.60;;;8.50;91.00;;;;;;5013018;28;20042;-72
2021/11/05 02:17:24;;;;;;;7.78;1.90;;;8.50;91.30;;;;;;5007810;28;20053;-73
2021/11/05 02:19:50;;;;;;;9.43;1.98;;;8.50;91.50;;;;;;5007757;28;20087;-73
2021/11/05 02:22:16;;;;;;;10.05;1.83;;;8.40;91.70;;;;;;5007284;28;20045;-73
2021/11/05 02:24:42;;;;;;;6.63;1.67;;;8.30;91.90;;;;;;5006761;28;20152;-78
2021/11/05 02:27:08;;;;;;;7.45;1.77;;;8.30;91.90;;;;;;5004962;28;20069;-73
2021/11/05 02:29:34;;;;;;;7.25;1.80;;;8.30;92.00;;;;;;5014088;28;21444;-73
2021/11/05 02:32:00;;;;;;;8.65;1.73;;;8.20;92.20;;;;;;5008077;28;20052;-74
2021/11/05 02:34:27;;;;;;;4.97;1.63;;;8.20;92.30;;;;;;5007557;28;20041;-74
2021/11/05 02:36:53;;;;;;;6.88;1.95;;;8.10;92.50;;;;;;5007728;28;20042;-73
2021/11/05 02:39:19;;;;;;;7.85;2.00;;;8.10;92.50;;;;;;5012716;28;20044;-77
2021/11/05 02:41:47;;;;;;;7.65;2.00;;;8.10;92.60;;;;;;5002813;28;20037;-73
2021/11/05 02:44:13;;;;;;;5.30;1.80;;;8.10;92.60;;;;;;5008142;28;20033;-73
2021/11/05 02:46:38;;;;;;;8.68;2.33;;;8.00;92.70;;;;;;5006689;28;20037;-79
2021/11/05 02:49:07;;;;;;;7.47;2.25;;;8.00;92.70;;;;;;5007429;28;20038;-73
2021/11/05 02:51:34;;;;;;;8.07;2.85;;;7.90;92.80;;;;;;5010675;28;20033;-73
2021/11/05 02:54:02;;;;;;;7.43;2.63;;;7.90;92.80;;;;;;5002414;28;20116;-73
2021/11/05 02:56:28;;;;;;;7.13;2.42;;;7.90;92.70;;;;;;5010208;28;20034;-73
2021/11/05 02:58:54;;;;;;;10.95;3.38;;;7.90;92.80;;;;;;5018192;28;20064;-73
2021/11/05 03:01:20;;;;;;;9.07;3.03;;;7.90;92.90;;;;;;5010342;28;20477;-74
2021/11/05 03:03:46;;;;;;;7.55;2.72;;;7.90;92.80;;;;;;5006832;28;20374;-75
2021/11/05 03:06:12;;;;;;;10.20;3.10;;;7.90;92.80;;;;;;5026182;28;20038;-74
2021/11/05 03:08:38;;;;;;;10.70;3.67;;;8.00;92.80;;;;;;5026365;28;20033;-78
2021/11/05 03:11:04;;;;;;;9.63;3.75;;;8.00;92.80;;;;;;5010635;28;20049;-75
2021/11/05 03:13:30;;;;;;;10.32;3.60;;;8.00;92.80;;;;;;5016333;28;20037;-73
2021/11/05 03:15:56;;;;;;;10.60;3.70;;;8.00;92.80;;;;;;5012508;28;20034;-73
2021/11/05 03:18:23;;;;;;;10.27;3.90;;;8.00;92.80;;;;;;5013884;28;20046;-73
2021/11/05 03:20:49;;;;;;;8.13;3.15;;;8.10;92.70;;;;;;5008076;28;20512;-73
2021/11/05 03:23:16;;;;;;;10.20;3.40;;;8.10;92.70;;;;;;5008842;28;20037;-73
2021/11/05 03:25:42;;;;;;;8.70;3.10;;;8.00;92.70;;;;;;5009631;28;20030;-73
2021/11/05 03:28:08;;;;;;;9.13;3.00;;;8.00;92.70;;;;;;5012212;28;20045;-77
2021/11/05 03:30:36;;;;;;;9.60;2.80;;;8.00;92.80;;;;;;5019353;28;20493;-73
2021/11/05 03:33:03;;;;;;;8.07;2.53;;;8.00;92.80;;;;;;5013856;28;20029;-75
2021/11/05 03:35:28;;;;;;;12.45;2.70;;;8.00;92.70;;;;;;5006488;28;20112;-74
2021/11/05 03:37:54;;;;;;;9.18;2.65;;;7.90;92.70;;;;;;5011396;28;20129;-73
2021/11/05 03:40:20;;;;;;;9.73;2.45;;;7.90;92.80;;;;;;5011103;28;20470;-75
2021/11/05 03:42:48;;;;;;;13.18;2.63;;;7.90;92.80;;;;;;5014272;28;20034;-73
2021/11/05 03:45:19;;;;;;;9.98;2.50;;;7.80;92.80;;;;;;5008583;28;20026;-74
2021/11/05 03:47:45;;;;;;;6.55;2.25;;;7.70;92.90;;;;;;5013522;28;20037;-73
2021/11/05 03:50:11;;;;;;;10.50;2.67;;;7.70;92.80;;;;;;5006822;28;20046;-75
2021/11/05 03:52:37;;;;;;;7.18;2.22;;;7.60;92.80;;;;;;5029753;28;20358;-73
2021/11/05 03:55:04;;;;;;;4.85;1.88;;;7.60;92.90;;;;;;5010740;28;20045;-73
2021/11/05 03:57:30;;;;;;;8.27;2.70;;;7.50;92.90;;;;;;5008817;28;20525;-73
2021/11/05 03:59:55;;;;;;;9.90;2.33;;;7.50;93.00;;;;;;5010572;28;20133;-75
2021/11/05 04:02:21;;;;;;;6.43;2.10;;;7.40;93.10;;;;;;5009916;28;20042;-75
2021/11/05 04:04:47;;;;;;;9.38;2.40;;;7.40;93.20;;;;;;5006538;28;20431;-73
2021/11/05 04:07:13;;;;;;;8.23;2.10;;;7.30;93.20;;;;;;5012122;28;20163;-75
2021/11/05 04:09:38;;;;;;;6.90;2.13;;;7.30;93.20;;;;;;5013279;28;20124;-74
2021/11/05 04:12:04;;;;;;;6.28;1.83;;;7.30;93.30;;;;;;5009058;28;20030;-74
2021/11/05 04:14:31;;;;;;;8.05;2.17;;;7.20;93.30;;;;;;5011528;28;20034;-73
2021/11/05 04:16:56;;;;;;;6.72;2.97;;;7.20;93.30;;;;;;5009235;28;20040;-74
2021/11/05 04:19:22;;;;;;;6.63;2.47;;;7.10;93.40;;;;;;5008913;28;20405;-74
2021/11/05 04:21:48;;;;;;;6.90;2.50;;;7.10;93.40;;;;;;5014764;28;20080;-73
2021/11/05 04:24:14;;;;;;;9.27;2.40;;;7.10;93.50;;;;;;5009876;28;20436;-73
2021/11/05 04:26:39;;;;;;;11.45;2.95;;;7.20;93.60;;;;;;5010430;28;20034;-74
2021/11/05 04:29:05;;;;;;;14.00;3.28;;;7.20;93.60;;;;;;5009849;28;20030;-73
2021/11/05 04:31:31;;;;;;;9.43;3.13;;;7.20;93.60;;;;;;5006811;28;20050;-74
2021/11/05 04:33:57;;;;;;;10.82;3.20;;;7.20;93.60;;;;;;5009061;28;20103;-73
2021/11/05 04:36:22;;;;;;;9.40;3.25;;;7.20;93.50;;;;;;5014036;28;20079;-73
2021/11/05 04:38:49;;;;;;;9.77;3.03;;;7.20;93.50;;;;;;5016190;28;20084;-73
2021/11/05 04:41:15;;;;;;;10.52;3.45;;;7.20;93.40;;;;;;5002267;28;20041;-74
2021/11/05 04:43:41;;;;;;;7.50;2.63;;;7.10;93.40;;;;;;5009778;28;20040;-74
2021/11/05 04:46:07;;;;;;;9.55;3.45;;;7.10;93.40;;;;;;5005522;28;20056;-74
2021/11/05 04:48:33;;;;;;;13.73;3.65;;;7.10;93.40;;;;;;5009442;28;20045;-74
2021/11/05 04:50:59;;;;;;;13.15;3.28;;;7.10;93.40;;;;;;5011236;28;20516;-73
2021/11/05 04:53:25;;;;;;;13.27;3.22;;;7.10;93.50;;;;;;5030729;28;20054;-77
2021/11/05 04:55:50;;;;;;;10.90;3.60;;;7.10;93.50;;;;;;5032434;28;20033;-73
2021/11/05 04:58:16;;;;;;;10.88;3.00;;;7.10;93.50;;;;;;5010440;28;20564;-73
2021/11/05 05:00:42;;;;;;;10.00;3.67;;;7.10;93.50;;;;;;5008106;28;20599;-74
2021/11/05 05:03:08;;;;;;;14.32;3.47;;;7.20;93.50;;;;;;5022241;28;20084;-73
2021/11/05 05:05:34;;;;;;;12.23;3.53;;;7.20;93.60;;;;;;5010403;28;20033;-74
2021/11/05 05:08:00;;;;;;;12.15;3.63;;;7.20;93.50;;;;;;5011026;28;20088;-74
2021/11/05 05:10:27;;;;;;;9.38;3.30;;;7.20;93.50;;;;;;5006057;28;20053;-73
2021/11/05 05:12:53;;;;;;;10.40;3.08;;;7.20;93.50;;;;;;5011666;28;20041;-75
2021/11/05 05:15:19;;;;;;;16.85;4.10;;;7.20;93.40;;;;;;5012255;28;20038;-75
2021/11/05 05:17:44;;;;;;;12.23;3.10;;;7.20;93.50;;;;;;5010761;28;20029;-76
2021/11/05 05:20:13;;;;;;;9.38;3.03;;;7.20;93.40;;;;;;5007858;28;20129;-75
2021/11/05 05:22:39;;;;;;;9.05;3.47;;;7.20;93.40;;;;;;5025184;28;20041;-74
2021/11/05 05:25:07;;;;;;;11.07;3.55;;;7.20;93.50;;;;;;5007537;28;20030;-73
2021/11/05 05:27:33;;;;;;;13.10;3.92;;;7.20;93.50;;;;;;5008605;28;20034;-73
2021/11/05 05:29:59;;;;;;;13.60;3.30;;;7.20;93.50;;;;;;5020404;28;20044;-73
2021/11/05 05:32:25;;;;;;;7.57;3.22;;;7.20;93.50;;;;;;5007289;28;20033;-73
2021/11/05 05:34:51;;;;;;;10.68;3.20;;;7.20;93.60;;;;;;5021898;28;20034;-73
2021/11/05 05:37:16;;;;;;;10.43;3.22;;;7.20;93.50;;;;;;5015152;28;20034;-76
2021/11/05 05:39:42;;;;;;;11.13;3.30;;;7.10;93.50;;;;;;5015470;28;20048;-73
2021/11/05 05:42:08;;;;;;;8.85;3.38;;;7.10;93.60;;;;;;5017976;28;20026;-75
2021/11/05 05:44:34;;;;;;;10.32;4.00;;;7.10;93.60;;;;;;5007965;28;20057;-76
2021/11/05 05:47:01;;;;;;;9.95;3.83;;;7.10;93.70;;;;;;5015504;28;20044;-74
2021/11/05 05:49:27;;;;;;;9.73;3.58;;;7.20;93.70;;;;;;5008631;28;20094;-74
2021/11/05 05:51:52;;;;;;;9.98;3.80;;;7.20;93.70;;;;;;5004675;28;20041;-72
2021/11/05 05:54:18;;;;;;;7.63;3.60;;;7.20;93.60;;;;;;5020958;28;20065;-73
2021/11/05 05:56:44;;;;;;;14.55;3.60;;;7.20;93.50;;;;;;5005367;28;20552;-73
2021/11/05 05:59:10;;;;;;;12.05;3.38;;;7.20;93.50;;;;;;5012907;28;20033;-73
2021/11/05 06:01:36;;;;;;;9.68;3.60;;;7.10;93.50;;;;;;5004542;28;20033;-73
2021/11/05 06:04:02;;;;;;;12.00;3.22;;;7.10;93.50;;;;;;5023647;28;20038;-73
2021/11/05 06:06:29;;;;;;;7.65;3.88;;;7.10;93.50;;;;;;5006710;28;20377;-73
2021/11/05 06:08:54;;;;;;;10.77;3.47;;;7.10;93.40;;;;;;5020222;28;20477;-74
2021/11/05 06:11:20;;;;;;;8.55;3.30;;;7.10;93.50;;;;;;5003124;28;20168;-75
2021/11/05 06:13:46;;;;;;;9.20;3.50;;;7.00;93.50;;;;;;5006918;28;20030;-77
2021/11/05 06:16:12;;;;;;;10.60;3.97;;;7.00;93.50;;;;;;5008337;28;20034;-73
2021/11/05 06:18:38;;;;;;;10.50;3.58;;;7.00;93.50;;;;;;5009701;28;20034;-73
2021/11/05 06:21:04;;;;;;;10.13;3.22;;;6.90;93.60;;;;;;5005532;28;20072;-77
2021/11/05 06:23:30;;;;;;;13.52;4.15;;;6.90;93.60;;;;;;5005020;28;20057;-72
2021/11/05 06:25:56;;;;;;;11.25;3.72;;;6.80;93.60;;;;;;5008587;28;20034;-74
2021/11/05 06:28:22;;;;;;;12.95;4.38;;;6.80;93.70;;;;;;5022030;28;20030;-73
2021/11/05 06:30:48;;;;;;;12.63;4.38;;;6.80;93.70;;;;;;5010265;28;20092;-74
2021/11/05 06:33:18;;;;;;;8.40;3.42;;;6.70;93.80;;;;;;5005256;28;20109;-74
2021/11/05 06:35:45;;;;;;;9.48;3.72;;;6.70;93.80;;;;;;5006582;28;20607;-73
2021/11/05 06:38:11;;;;;;;10.00;3.95;;;6.70;93.70;;;;;;5006958;28;20022;-77
2021/11/05 06:40:36;;;;;;;10.10;3.78;;;6.70;93.80;;;;;;5005739;28;20133;-73
2021/11/05 06:43:03;;;;;;;10.02;3.58;;;6.60;93.80;;;;;;5013629;28;20397;-73
2021/11/05 06:45:30;;;;;;;11.85;3.80;;;6.60;93.80;;;;;;5008942;28;20108;-74
2021/11/05 06:47:56;;;;;;;10.93;4.20;;;6.60;93.90;;;;;;5010510;28;20473;-73
2021/11/05 06:50:22;;;;;;;12.02;4.20;;;6.50;93.90;;;;;;5007877;28;20125;-73
2021/11/05 06:52:48;;;;;;;10.65;3.95;;;6.60;94.00;;;;;;5003389;28;20038;-75
2021/11/05 06:55:14;;;;;;;9.15;3.83;;;6.50;94.00;;;;;;5007617;28;20385;-73
2021/11/05 06:57:40;;;;;;;9.18;3.85;;;6.50;94.00;;;;;;5008071;28;20041;-73
2021/11/05 07:00:08;;;;;;;8.65;3.78;;;6.50;94.00;;;;;;5012182;28;20030;-74
2021/11/05 07:02:40;;;;;;;10.68;4.28;;;6.50;94.00;;;;;;5007000;28;20056;-73
2021/11/05 07:05:07;;;;;;;9.68;4.35;;;6.50;94.00;;;;;;5004480;28;20153;-73
2021/11/05 07:07:33;;;;;;;12.52;5.15;;;6.40;93.90;;;;;;5007013;28;20073;-73
2021/11/05 07:09:58;;;;;;;13.27;5.63;;;6.40;94.00;;;;;;5004906;28;20538;-74
2021/11/05 07:12:24;;;;;;;15.55;6.07;;;6.40;93.90;;;;;;5011431;28;20432;-73
2021/11/05 07:14:50;;;;;;;12.90;6.60;;;6.40;93.90;;;;;;5007042;28;20042;-73
2021/11/05 07:17:15;;;;;;;12.85;5.82;;;6.40;93.90;;;;;;5006643;28;20053;-73
2021/11/05 07:19:41;;;;;;;15.60;6.47;;;6.40;94.00;;;;;;5004888;28;20038;-74
2021/11/05 07:22:07;;;;;;;15.57;6.53;;;6.40;94.00;;;;;;5029507;28;20129;-74
2021/11/05 07:24:36;;;;;;;14.65;7.05;;;6.50;94.00;;;;;;5003191;28;20550;-72
2021/11/05 07:27:02;;;;;;;16.73;7.93;;;6.50;94.00;;;;;;5014219;28;20040;-73
2021/11/05 07:29:28;;;;;;;14.65;7.18;;;6.60;94.10;;;;;;5016307;28;20042;-73
2021/11/05 07:32:00;;;;;;;12.98;6.95;;;6.70;94.00;;;;;;5006926;28;20484;-72
2021/11/05 07:34:30;;;;;;;12.48;7.40;;;6.70;94.00;;;;;;5023499;28;20030;-74
2021/11/05 07:37:08;;;;;;;13.75;6.78;;;6.80;93.90;;;;;;5006480;28;20034;-69
2021/11/05 07:39:34;;;;;;;14.65;6.68;;;6.90;93.80;;;;;;5024719;28;20038;-69
2021/11/05 07:42:00;;;;;;;15.35;7.13;;;7.00;93.70;;;;;;5009650;28;20052;-69
2021/11/05 07:44:26;;;;;;;16.02;6.57;;;7.10;93.60;;;;;;5015772;28;20405;-69
2021/11/05 07:46:52;;;;;;;16.55;7.88;;;7.20;93.60;;;;;;5002731;28;20520;-70
2021/11/05 07:49:18;;;;;;;13.85;6.97;;;7.30;93.50;;;;;;5004741;28;20038;-69
2021/11/05 07:51:44;;;;;;;13.27;7.05;;;7.40;93.30;;;;;;5007847;28;20037;-71
2021/11/05 07:54:10;;;;;;;16.35;7.05;;;7.40;93.20;;;;;;5004238;28;20037;-70
2021/11/05 07:56:36;;;;;;;13.98;6.13;;;7.50;93.10;;;;;;5007566;28;20501;-70
2021/11/05 07:59:03;;;;;;;15.50;6.25;;;7.50;93.00;;;;;;5024186;28;20034;-70
2021/11/05 08:01:29;;;;;;;10.93;5.25;;;7.60;93.00;;;;;;5009899;28;20054;-70
2021/11/05 08:03:55;;;;;;;16.33;6.32;;;7.60;93.00;;;;;;5009305;28;20481;-70
2021/11/05 08:06:20;;;;;;;15.77;6.50;;;7.60;92.90;;;;;;5007051;28;20455;-70
2021/11/05 08:08:46;;;;;;;16.85;7.65;;;7.60;92.80;;;;;;5005845;28;20038;-70
2021/11/05 08:11:12;;;;;;;17.55;6.10;;;7.60;92.90;;;;;;5013319;28;20056;-70
2021/11/05 08:13:39;;;;;;;25.85;7.53;;;7.60;92.90;;;;;;5007175;28;20839;-71
2021/11/05 08:16:05;;;;;;;14.88;7.13;;;7.70;92.90;;;;;;5006928;28;20057;-74
2021/11/05 08:18:31;;;;;;;17.13;7.82;;;7.70;92.90;;;;;;5009202;28;20038;-70
2021/11/05 08:20:57;;;;;;;13.32;6.55;;;7.80;93.10;;;;;;5005658;28;20038;-71
2021/11/05 08:23:23;;;;;;;18.15;6.22;;;7.90;93.00;;;;;;5007651;28;20037;-70
2021/11/05 08:25:48;;;;;;;19.13;6.88;;;8.10;93.10;;;;;;5003872;28;20026;-73
2021/11/05 08:28:16;;;;;;;15.10;6.55;;;8.30;93.30;;;;;;5005912;28;20038;-70
2021/11/05 08:30:42;;;;;;;17.48;6.95;;;8.60;93.00;;;;;;5006073;28;20125;-70
2021/11/05 08:33:08;;;;;;;17.20;7.18;;;8.70;92.70;;;;;;5007873;28;20458;-71
2021/11/05 08:35:33;;;;;;;16.65;7.68;;;8.70;92.30;;;;;;5010637;28;20036;-70
2021/11/05 08:38:01;;;;;;;17.30;7.53;;;8.90;92.20;;;;;;5005277;28;20394;-70
2021/11/05 08:40:27;;;;;;;19.60;8.98;;;8.90;91.80;;;;;;5006576;28;20095;-70
2021/11/05 08:42:53;;;;;;;18.85;8.20;;;9.10;91.60;;;;;;5006999;28;20486;-70
2021/11/05 08:45:19;;;;;;;27.92;14.85;;;9.10;91.60;;;;;;5008719;28;20049;-70
2021/11/05 08:47:45;;;;;;;24.73;14.18;;;9.20;91.50;;;;;;5006395;28;20035;-72
2021/11/05 08:50:17;;;;;;;27.88;17.35;;;9.40;91.40;;;;;;5001889;28;20108;-68
2021/11/05 08:52:42;;;;;;;19.25;10.27;;;9.40;91.40;;;;;;5022377;28;20038;-69
2021/11/05 08:55:09;;;;;;;16.27;7.10;;;9.60;91.40;;;;;;5006326;28;20040;-69
2021/11/05 08:57:36;;;;;;;15.68;8.20;;;9.60;91.00;;;;;;5012707;28;20041;-71
2021/11/05 09:00:05;;;;;;;20.77;7.85;;;9.60;90.90;;;;;;5004446;28;20041;-71
2021/11/05 09:02:31;;;;;;;19.42;7.90;;;9.70;90.90;;;;;;5007625;28;20524;-70
2021/11/05 09:04:57;;;;;;;13.98;6.15;;;9.70;90.80;;;;;;5004106;28;20167;-69
2021/11/05 09:07:22;;;;;;;18.02;8.13;;;9.80;90.70;;;;;;5007507;28;20057;-69
2021/11/05 09:09:48;;;;;;;19.27;7.18;;;9.80;90.60;;;;;;5009318;28;20038;-69
2021/11/05 09:12:14;;;;;;;21.45;8.00;;;9.90;90.50;;;;;;5008934;28;20041;-69
2021/11/05 09:14:39;;;;;;;21.55;7.28;;;10.10;90.60;;;;;;5007125;28;20508;-69
2021/11/05 09:17:05;;;;;;;15.65;6.65;;;10.10;90.40;;;;;;5009184;28;20026;-69
2021/11/05 09:19:31;;;;;;;24.33;7.00;;;10.10;90.20;;;;;;5015723;28;20060;-71
2021/11/05 09:21:57;;;;;;;17.65;6.95;;;10.10;90.10;;;;;;5004259;28;20042;-70
2021/11/05 09:24:22;;;;;;;15.70;6.95;;;10.10;90.40;;;;;;5005638;28;20034;-70
2021/11/05 09:26:48;;;;;;;18.55;6.93;;;10.20;90.40;;;;;;4998961;28;20034;-73
2021/11/05 09:29:14;;;;;;;14.52;6.78;;;10.30;90.10;;;;;;5007928;28;20088;-69
2021/11/05 09:31:40;;;;;;;17.15;7.78;;;10.30;90.10;;;;;;5003906;28;20029;-70
2021/11/05 09:34:06;;;;;;;16.58;8.35;;;10.40;90.00;;;;;;5003549;28;20096;-71
2021/11/05 09:36:31;;;;;;;16.65;7.95;;;10.50;89.90;;;;;;5001294;28;20469;-72
2021/11/05 09:38:57;;;;;;;15.15;7.57;;;10.60;89.90;;;;;;5004176;28;20069;-68
2021/11/05 09:41:23;;;;;;;18.80;6.68;;;10.60;89.70;;;;;;5001819;28;20042;-68
2021/11/05 09:43:49;;;;;;;18.63;6.90;;;10.60;89.60;;;;;;5004234;28;20064;-68
2021/11/05 09:46:14;;;;;;;15.00;6.72;;;10.60;89.60;;;;;;5005830;28;20772;-71
2021/11/05 09:48:42;;;;;;;16.92;6.18;;;10.60;89.60;;;;;;5002637;28;20037;-71
2021/11/05 09:51:10;;;;;;;17.92;5.50;;;10.60;89.30;;;;;;5004875;28;20050;-71
2021/11/05 09:53:37;;;;;;;18.85;6.60;;;10.60;89.10;;;;;;5009198;28;20401;-71
2021/11/05 09:56:06;;;;;;;14.40;5.40;;;10.60;88.90;;;;;;5006545;28;20033;-71
2021/11/05 09:58:32;;;;;;;13.80;6.03;;;10.70;89.00;;;;;;5006427;28;20070;-71
2021/11/05 10:00:57;;;;;;;20.25;8.60;;;10.80;88.80;;;;;;5006595;28;20073;-69
2021/11/05 10:03:23;;;;;;;20.23;8.45;;;10.90;88.80;;;;;;5007776;28;20065;-70
2021/11/05 10:05:55;;;;;;;17.30;7.68;;;10.90;88.20;;;;;;5009720;28;20042;-73
2021/11/05 10:08:32;;;;;;;14.73;6.00;;;11.00;88.30;;;;;;5007840;28;20053;-69
2021/11/05 10:10:59;;;;;;;17.52;7.95;;;11.00;88.00;;;;;;5004694;28;20738;-68
2021/11/05 10:13:26;;;;;;;17.55;6.50;;;11.10;88.00;;;;;;5020438;28;20057;-69
2021/11/05 10:15:56;;;;;;;14.60;5.90;;;11.10;88.00;;;;;;5005810;28;20034;-74
2021/11/05 10:18:30;;;;;;;18.92;5.03;;;11.10;87.60;;;;;;5004174;28;20046;-70
2021/11/05 10:21:14;;;;;;;17.63;5.93;;;11.10;87.40;;;;;;5004856;28;20045;-71
2021/11/05 10:23:42;;;;;;;14.60;5.63;;;11.10;87.60;;;;;;5004806;28;20799;-69
2021/11/05 10:26:18;;;;;;;21.30;9.00;;;11.20;87.60;;;;;;5001568;28;20038;-73
2021/11/05 10:28:43;;;;;;;25.77;12.23;;;11.20;87.60;;;;;;4997303;28;20030;-72
2021/11/05 10:31:10;;;;;;;22.40;8.15;;;11.10;87.20;;;;;;5007561;28;20462;-77
2021/11/05 10:33:42;;;;;;;19.48;7.53;;;11.10;87.40;;;;;;5017244;28;20021;-72
2021/11/05 10:36:11;;;;;;;16.98;5.93;;;11.30;87.60;;;;;;5020435;28;20034;-73
2021/11/05 10:38:40;;;;;;;14.48;6.53;;;11.20;86.50;;;;;;5003436;28;20030;-73
2021/11/05 10:41:08;;;;;;;17.25;8.43;;;11.30;86.70;;;;;;5006184;28;20038;-73
2021/11/05 10:43:45;;;;;;;18.02;6.05;;;11.40;86.40;;;;;;5007088;28;20033;-73
2021/11/05 10:46:41;;;;;;;21.35;8.10;;;11.60;86.50;;;;;;4984763;28;20485;-75
2021/11/05 10:49:25;;;;;;;22.60;9.35;;;11.70;86.30;;;;;;4989943;28;20041;-75
2021/11/05 10:51:52;;;;;;;16.33;5.30;;;11.90;85.30;;;;;;5001212;28;20756;-74
2021/11/05 10:54:17;;;;;;;17.95;8.52;;;12.00;84.80;;;;;;4998443;28;20113;-72
2021/11/05 10:56:45;;;;;;;18.58;6.68;;;12.00;84.70;;;;;;5007439;28;20121;-72
2021/11/05 10:59:11;;;;;;;17.10;6.25;;;12.10;84.90;;;;;;5002166;28;20030;-72
2021/11/05 11:01:39;;;;;;;17.75;7.28;;;12.20;85.00;;;;;;4987987;28;20049;-72
2021/11/05 11:04:08;;;;;;;14.13;7.93;;;12.30;84.70;;;;;;4993150;28;20030;-72
2021/11/05 11:06:45;;;;;;;14.98;6.93;;;12.40;84.40;;;;;;4989913;28;20080;-76
2021/11/05 11:09:18;;;;;;;14.70;6.35;;;12.50;83.80;;;;;;4990752;28;20181;-75
2021/11/05 11:11:48;;;;;;;15.93;6.90;;;12.40;83.10;;;;;;4993828;28;20053;-76
2021/11/05 11:14:18;;;;;;;13.43;5.85;;;12.40;82.30;;;;;;4992462;28;20041;-72
2021/11/05 11:16:58;;;;;;;12.57;5.47;;;12.40;82.30;;;;;;4994873;28;20120;-72
2021/11/05 11:19:29;;;;;;;15.57;5.90;;;12.40;82.40;;;;;;4994366;28;20069;-71
2021/11/05 11:21:58;;;;;;;15.70;5.63;;;12.40;82.20;;;;;;4995229;28;20100;-74
2021/11/05 11:24:27;;;;;;;15.85;6.60;;;12.40;82.50;;;;;;4998586;28;20041;-73
2021/11/05 11:26:54;;;;;;;15.98;5.82;;;12.30;81.40;;;;;;4997866;28;20038;-74
2021/11/05 11:29:22;;;;;;;14.02;6.00;;;12.30;81.30;;;;;;5014142;28;20559;-74
2021/11/05 11:31:50;;;;;;;11.27;3.00;;;12.50;81.20;;;;;;4994499;28;20046;-74
2021/11/05 11:34:16;;;;;;;13.63;3.63;;;12.60;79.30;;;;;;4993798;28;20061;-75
2021/11/05 11:36:47;;;;;;;9.75;2.67;;;12.90;79.00;;;;;;4993764;28;20041;-76
2021/11/05 11:39:17;;;;;;;7.97;1.98;;;13.10;78.30;;;;;;5000360;28;20088;-72
2021/11/05 11:41:43;;;;;;;10.73;2.65;;;13.10;76.00;;;;;;5007650;28;20054;-72
2021/11/05 11:44:13;;;;;;;8.57;2.38;;;12.90;76.40;;;;;;5010283;28;20042;-72
2021/11/05 11:46:55;;;;;;;12.88;2.90;;;12.80;77.90;;;;;;5009329;28;20041;-75
2021/11/05 11:49:39;;;;;;;11.73;3.20;;;12.70;78.60;;;;;;5009450;28;20077;-74
2021/11/05 11:52:30;;;;;;;10.83;2.70;;;12.70;78.90;;;;;;5008018;28;20050;-72
2021/11/05 11:55:17;;;;;;;10.10;2.45;;;12.70;79.10;;;;;;5009013;28;20046;-76
2021/11/05 11:57:44;;;;;;;13.90;2.70;;;12.90;78.70;;;;;;5008326;28;20064;-73
2021/11/05 12:00:22;;;;;;;11.07;2.53;;;13.10;78.30;;;;;;5010112;28;20041;-72
2021/11/05 12:03:01;;;;;;;12.65;2.90;;;13.30;78.30;;;;;;5008708;28;20038;-74
2021/11/05 12:05:29;;;;;;;10.13;3.90;;;13.20;78.00;;;;;;5006868;28;20271;-74
2021/11/05 12:08:26;;;;;;;9.23;2.80;;;13.10;76.40;;;;;;5007502;28;20338;-74
2021/11/05 12:11:16;;;;;;;8.65;2.45;;;13.00;76.00;;;;;;5003872;28;20080;-75
2021/11/05 12:13:51;;;;;;;12.52;2.80;;;12.90;76.00;;;;;;5007911;28;20041;-72
2021/11/05 12:16:26;;;;;;;10.77;3.28;;;12.70;76.70;;;;;;5007280;28;20121;-76
2021/11/05 12:19:03;;;;;;;12.07;2.97;;;12.60;77.80;;;;;;5008234;28;20505;-74
2021/11/05 12:22:01;;;;;;;10.77;2.50;;;12.50;78.60;;;;;;5003674;28;20534;-72
2021/11/05 12:24:28;;;;;;;17.33;4.47;;;12.40;78.60;;;;;;4976085;28;20061;-72
2021/11/05 12:27:01;;;;;;;11.30;3.88;;;12.30;78.80;;;;;;5006045;28;20088;-73
2021/11/05 12:29:39;;;;;;;12.68;2.33;;;12.20;79.10;;;;;;5007568;28;20041;-73
2021/11/05 12:32:17;;;;;;;13.60;2.53;;;12.10;78.40;;;;;;5008013;28;20050;-72
2021/11/05 12:34:50;;;;;;;11.77;2.63;;;12.10;79.10;;;;;;5006681;28;20038;-72
2021/11/05 12:37:34;;;;;;;11.80;2.60;;;12.10;79.20;;;;;;5012368;28;20092;-73
2021/11/05 12:40:19;;;;;;;12.80;3.00;;;12.10;79.40;;;;;;5019023;28;20363;-72
2021/11/05 12:42:44;;;;;;;14.95;4.15;;;12.20;79.70;;;;;;5003711;28;20045;-72
2021/11/05 12:45:10;;;;;;;14.05;3.08;;;12.20;79.60;;;;;;5005641;28;20041;-72
2021/11/05 12:47:46;;;;;;;15.20;2.83;;;12.20;80.00;;;;;;5007069;28;20121;-73
2021/11/05 12:50:15;;;;;;;10.00;2.72;;;12.20;79.70;;;;;;5006716;28;20513;-72